Time;durP1;ratioP1;P1;durP2;ratioP2;P2;SDS_P1;SDS_P2;PMS_P1;PMS_P2;Temp;Humidity;BMP_temperature;BMP_pressure;BME280_temperature;BME280_humidity;BME280_pressure;Samples;Min_cycle;Max_cycle;Signal;HPM_P1;HPM_P2
2023/12/07 00:01:11;;;;;;;;;51.75;40.00;;;;;-147.47;100.00;64613.53;4886869;29;28797;-72
2023/12/07 00:03:36;;;;;;;;;49.00;38.00;;;;;-147.47;100.00;64613.53;4886145;29;28774;-70
2023/12/07 00:06:01;;;;;;;;;45.00;35.25;;;;;-147.47;100.00;64613.53;4904026;29;28903;-71
2023/12/07 00:08:27;;;;;;;;;49.00;38.50;;;;;-147.47;100.00;64613.53;4892145;29;28642;-72
2023/12/07 00:10:52;;;;;;;;;41.75;33.75;;;;;-147.47;100.00;64613.53;4891227;29;29215;-70
2023/12/07 00:13:17;;;;;;;;;45.75;36.00;;;;;-147.47;100.00;64613.53;4893172;29;28461;-72
2023/12/07 00:15:43;;;;;;;;;40.50;33.75;;;;;-147.47;100.00;64613.53;4892780;29;28482;-72
2023/12/07 00:18:09;;;;;;;;;48.25;37.00;;;;;-147.47;100.00;64613.53;4890532;29;29103;-73
2023/12/07 00:20:35;;;;;;;;;41.00;33.00;;;;;-147.47;100.00;64613.53;4891006;29;29345;-71
2023/12/07 00:23:00;;;;;;;;;48.75;36.00;;;;;-147.47;100.00;64613.53;4887312;29;28867;-72
2023/12/07 00:25:26;;;;;;;;;50.25;38.25;;;;;-147.47;100.00;64613.53;4889260;29;28450;-72
2023/12/07 00:27:52;;;;;;;;;39.50;34.75;;;;;-147.47;100.00;64613.53;4892329;29;28919;-72
2023/12/07 00:30:18;;;;;;;;;40.75;34.00;;;;;-147.47;100.00;64613.53;4892253;29;28609;-73
2023/12/07 00:32:44;;;;;;;;;42.25;34.25;;;;;-147.47;100.00;64613.53;4892278;29;28418;-72
2023/12/07 00:35:12;;;;;;;;;46.00;34.25;;;;;-147.47;100.00;64613.53;4886944;29;28419;-72
2023/12/07 00:37:38;;;;;;;;;45.50;33.25;;;;;-147.47;100.00;64613.53;4891636;29;28410;-71
2023/12/07 00:40:04;;;;;;;;;38.75;34.50;;;;;-147.47;100.00;64613.53;4890951;29;30062;-72
2023/12/07 00:42:29;;;;;;;;;39.75;34.75;;;;;-147.47;100.00;64613.53;4888906;29;28596;-72
2023/12/07 00:44:55;;;;;;;;;37.50;33.25;;;;;-147.47;100.00;64613.53;4902273;28;28565;-70
2023/12/07 00:47:20;;;;;;;;;43.75;32.25;;;;;-147.47;100.00;64613.53;4891808;29;28876;-73
2023/12/07 00:49:46;;;;;;;;;29.50;29.50;;;;;-147.47;100.00;64613.53;4889408;29;29161;-72
2023/12/07 00:52:12;;;;;;;;;44.00;33.00;;;;;-147.47;100.00;64613.53;4891939;29;28486;-70
2023/12/07 00:54:37;;;;;;;;;43.67;31.00;;;;;-147.47;100.00;64613.53;4891131;29;28562;-72
2023/12/07 00:57:03;;;;;;;;;37.75;30.50;;;;;-147.47;100.00;64613.53;4892037;29;28473;-72
2023/12/07 00:59:33;;;;;;;;;41.50;35.75;;;;;-147.47;100.00;64613.53;4884885;29;29505;-70
2023/12/07 01:02:05;;;;;;;;;38.50;32.00;;;;;-147.47;100.00;64613.53;4897739;29;28941;-72
2023/12/07 01:04:31;;;;;;;;;38.00;33.25;;;;;-147.47;100.00;64613.53;4884790;29;28540;-72
2023/12/07 01:06:56;;;;;;;;;41.00;33.25;;;;;-147.47;100.00;64613.53;4891545;29;29036;-73
2023/12/07 01:09:22;;;;;;;;;35.25;29.00;;;;;-147.47;100.00;64613.53;4887173;29;31090;-73
2023/12/07 01:11:48;;;;;;;;;43.75;34.25;;;;;-147.47;100.00;64613.53;4891250;29;28539;-72
2023/12/07 01:14:14;;;;;;;;;36.33;32.33;;;;;-147.47;100.00;64613.53;4891435;29;28593;-72
2023/12/07 01:16:39;;;;;;;;;36.67;30.33;;;;;-147.47;100.00;64613.53;4890944;29;28648;-73
2023/12/07 01:19:05;;;;;;;;;31.67;29.00;;;;;-147.47;100.00;64613.53;4891392;29;31221;-72
2023/12/07 01:21:30;;;;;;;;;34.00;30.33;;;;;-147.47;100.00;64613.53;4891492;29;28531;-72
2023/12/07 01:23:58;;;;;;;;;30.25;26.75;;;;;-147.47;100.00;64613.53;4887589;29;29245;-73
2023/12/07 01:26:23;;;;;;;;;35.25;30.25;;;;;-147.47;100.00;64613.53;4889959;29;29627;-70
2023/12/07 01:28:49;;;;;;;;;37.00;30.50;;;;;-147.47;100.00;64613.53;4890945;29;28484;-71
2023/12/07 01:31:14;;;;;;;;;37.00;29.50;;;;;-147.47;100.00;64613.53;4891134;29;28565;-70
2023/12/07 01:33:40;;;;;;;;;38.00;30.75;;;;;-147.47;100.00;64613.53;4889391;29;28471;-71
2023/12/07 01:36:05;;;;;;;;;36.25;31.25;;;;;-147.47;100.00;64613.53;4884836;29;28978;-72
2023/12/07 01:38:31;;;;;;;;;37.25;31.75;;;;;-147.47;100.00;64613.53;4891592;29;28438;-73
2023/12/07 01:40:56;;;;;;;;;36.75;27.75;;;;;-147.47;100.00;64613.53;4899257;29;28831;-71
2023/12/07 01:43:22;;;;;;;;;29.25;28.00;;;;;-147.47;100.00;64613.53;4890444;29;28447;-70
2023/12/07 01:45:51;;;;;;;;;36.25;30.50;;;;;-147.47;100.00;64613.53;4887411;29;29055;-71
2023/12/07 01:48:16;;;;;;;;;28.00;26.50;;;;;-147.47;100.00;64613.53;4893245;28;28829;-71
2023/12/07 01:50:42;;;;;;;;;32.25;29.50;;;;;-147.47;100.00;64613.53;4899781;29;28446;-70
2023/12/07 01:53:08;;;;;;;;;34.50;32.50;;;;;-147.47;100.00;64613.53;4885530;29;29444;-70
2023/12/07 01:55:34;;;;;;;;;33.25;27.75;;;;;-147.47;100.00;64613.53;4889532;29;28881;-72
2023/12/07 01:58:00;;;;;;;;;33.75;28.25;;;;;-147.47;100.00;64613.53;4890615;29;29285;-70
2023/12/07 02:00:27;;;;;;;;;34.00;26.50;;;;;-147.47;100.00;64613.53;4888854;29;29648;-70
2023/12/07 02:02:53;;;;;;;;;36.25;28.25;;;;;-147.47;100.00;64613.53;4890514;29;28858;-70
2023/12/07 02:05:18;;;;;;;;;36.25;30.75;;;;;-147.47;100.00;64613.53;4887473;29;28630;-70
2023/12/07 02:07:44;;;;;;;;;28.75;25.75;;;;;-147.47;100.00;64613.53;4888521;29;31501;-71
2023/12/07 02:10:10;;;;;;;;;37.75;33.50;;;;;-147.47;100.00;64613.53;4888131;29;29074;-70
2023/12/07 02:12:36;;;;;;;;;38.75;28.25;;;;;-147.47;100.00;64613.53;4893792;29;28477;-71
2023/12/07 02:15:03;;;;;;;;;36.00;33.00;;;;;-147.47;100.00;64613.53;4891965;29;30252;-71
2023/12/07 02:18:21;;;;;;;;;39.50;32.75;;;;;-147.47;100.00;64613.53;4890501;29;28679;-69
2023/12/07 02:21:09;;;;;;;;;37.75;31.25;;;;;-147.47;100.00;64613.53;4864677;29;28723;-71
2023/12/07 02:23:37;;;;;;;;;34.25;26.75;;;;;-147.47;100.00;64613.53;4891031;29;28918;-71
2023/12/07 02:26:04;;;;;;;;;39.25;30.25;;;;;-147.47;100.00;64613.53;4891490;29;30265;-70
2023/12/07 02:28:29;;;;;;;;;35.50;29.25;;;;;-147.47;100.00;64613.53;4889922;29;28439;-71
2023/12/07 02:30:54;;;;;;;;;30.00;28.00;;;;;-147.47;100.00;64613.53;4891522;29;28892;-70
2023/12/07 02:33:20;;;;;;;;;35.25;29.25;;;;;-147.47;100.00;64613.53;4891078;29;28858;-71
2023/12/07 02:35:46;;;;;;;;;36.00;27.50;;;;;-147.47;100.00;64613.53;4890722;29;30110;-73
2023/12/07 02:38:12;;;;;;;;;33.25;28.00;;;;;-147.47;100.00;64613.53;4884694;29;28660;-70
2023/12/07 02:40:40;;;;;;;;;29.75;24.75;;;;;-147.47;100.00;64613.53;4891016;29;28796;-71
2023/12/07 02:43:07;;;;;;;;;24.33;22.67;;;;;-147.47;100.00;64613.53;4889696;29;28619;-72
2023/12/07 02:45:33;;;;;;;;;35.75;28.75;;;;;-147.47;100.00;64613.53;4881462;29;28798;-73
2023/12/07 02:47:58;;;;;;;;;41.50;31.00;;;;;-147.47;100.00;64613.53;4885829;29;29068;-70
2023/12/07 02:50:24;;;;;;;;;39.00;32.50;;;;;-147.47;100.00;64613.53;4889538;29;29029;-71
2023/12/07 02:52:49;;;;;;;;;41.75;32.00;;;;;-147.47;100.00;64613.53;4887567;29;28679;-71
2023/12/07 02:55:15;;;;;;;;;29.25;25.00;;;;;-147.47;100.00;64613.53;4889910;29;28922;-71
2023/12/07 02:57:40;;;;;;;;;35.75;27.25;;;;;-147.47;100.00;64613.53;4890364;29;28607;-71
2023/12/07 03:00:07;;;;;;;;;39.00;28.75;;;;;-147.47;100.00;64613.53;4890248;29;28542;-70
2023/12/07 03:02:34;;;;;;;;;34.67;27.00;;;;;-147.47;100.00;64613.53;4892109;29;28612;-70
2023/12/07 03:05:00;;;;;;;;;29.50;27.50;;;;;-147.47;100.00;64613.53;4886813;29;28561;-69
2023/12/07 03:07:25;;;;;;;;;29.50;27.00;;;;;-147.47;100.00;64613.53;4883274;29;28795;-72
2023/12/07 03:09:50;;;;;;;;;34.25;29.25;;;;;-147.47;100.00;64613.53;4892666;29;28821;-70
2023/12/07 03:12:16;;;;;;;;;25.50;24.25;;;;;-147.47;100.00;64613.53;4894415;29;28505;-73
2023/12/07 03:14:41;;;;;;;;;32.50;27.00;;;;;-147.47;100.00;64613.53;4892355;29;29830;-71
2023/12/07 03:17:06;;;;;;;;;30.00;25.00;;;;;-147.47;100.00;64613.53;4894009;29;28431;-71
2023/12/07 03:19:32;;;;;;;;;31.33;26.00;;;;;-147.47;100.00;64613.53;4893994;29;37197;-75
2023/12/07 03:21:57;;;;;;;;;34.00;30.00;;;;;-147.47;100.00;64613.53;4891549;29;28531;-71
2023/12/07 03:24:23;;;;;;;;;28.75;27.00;;;;;-147.47;100.00;64613.53;4895126;29;28426;-71
2023/12/07 03:26:48;;;;;;;;;29.00;25.67;;;;;-147.47;100.00;64613.53;4889179;29;29550;-70
2023/12/07 03:29:13;;;;;;;;;28.33;24.67;;;;;-147.47;100.00;64613.53;4886002;29;28587;-70
2023/12/07 03:31:39;;;;;;;;;23.50;16.75;;;;;-147.47;100.00;64613.53;4889244;29;28469;-71
2023/12/07 03:34:05;;;;;;;;;26.25;23.25;;;;;-147.47;100.00;64613.53;4894100;29;29555;-71
2023/12/07 03:36:31;;;;;;;;;32.50;28.00;;;;;-147.47;100.00;64613.53;4893777;29;29733;-70
2023/12/07 03:38:56;;;;;;;;;27.00;25.67;;;;;-147.47;100.00;64613.53;4891075;29;28423;-70
2023/12/07 03:41:21;;;;;;;;;27.25;25.75;;;;;-147.47;100.00;64613.53;4894759;29;28911;-70
2023/12/07 03:43:47;;;;;;;;;30.25;26.75;;;;;-147.47;100.00;64613.53;4893501;29;30866;-70
2023/12/07 03:46:12;;;;;;;;;29.00;29.00;;;;;-147.47;100.00;64613.53;4892532;29;30279;-70
2023/12/07 03:48:37;;;;;;;;;29.00;27.00;;;;;-147.47;100.00;64613.53;4890370;29;28485;-71
2023/12/07 03:51:03;;;;;;;;;28.67;24.00;;;;;-147.47;100.00;64613.53;4891349;29;28407;-70
2023/12/07 03:53:28;;;;;;;;;22.00;21.67;;;;;-147.47;100.00;64613.53;4893175;29;28624;-70
2023/12/07 03:55:55;;;;;;;;;32.00;26.00;;;;;-147.47;100.00;64613.53;4892690;29;29312;-70
2023/12/07 03:58:20;;;;;;;;;26.33;22.67;;;;;-147.47;100.00;64613.53;4899195;29;29113;-70
2023/12/07 04:00:46;;;;;;;;;24.33;24.33;;;;;-147.47;100.00;64613.53;4892137;29;28205;-70
2023/12/07 04:03:11;;;;;;;;;32.33;26.00;;;;;-147.47;100.00;64613.53;4888214;29;28833;-71
2023/12/07 04:05:37;;;;;;;;;30.00;26.00;;;;;-147.47;100.00;64613.53;4885363;29;28881;-71
2023/12/07 04:08:03;;;;;;;;;26.67;23.67;;;;;-147.47;100.00;64613.53;4890430;29;28884;-72
2023/12/07 04:10:29;;;;;;;;;30.00;27.00;;;;;-147.47;100.00;64613.53;4886280;29;28400;-71
2023/12/07 04:12:54;;;;;;;;;31.33;26.33;;;;;-147.47;100.00;64613.53;4885764;29;28795;-71
2023/12/07 04:15:20;;;;;;;;;31.33;26.67;;;;;-147.47;100.00;64613.53;4892863;29;29137;-71
2023/12/07 04:17:46;;;;;;;;;41.67;30.00;;;;;-147.47;100.00;64613.53;4892480;29;28789;-72
2023/12/07 04:20:13;;;;;;;;;27.00;24.50;;;;;-147.47;100.00;64613.53;4887653;29;28522;-73
2023/12/07 04:22:38;;;;;;;;;34.25;27.00;;;;;-147.47;100.00;64613.53;4891052;29;28410;-72
2023/12/07 04:25:04;;;;;;;;;31.33;27.67;;;;;-147.47;100.00;64613.53;4892434;29;28857;-72
2023/12/07 04:27:29;;;;;;;;;29.33;26.00;;;;;-147.47;100.00;64613.53;4888342;29;28861;-72
2023/12/07 04:29:55;;;;;;;;;26.67;23.33;;;;;-147.47;100.00;64613.53;4886843;29;28546;-71
2023/12/07 04:32:21;;;;;;;;;27.00;23.00;;;;;-147.47;100.00;64613.53;4881186;29;28661;-70
2023/12/07 04:34:46;;;;;;;;;28.75;23.00;;;;;-147.47;100.00;64613.53;4882688;29;28595;-72
2023/12/07 04:37:11;;;;;;;;;30.75;24.75;;;;;-147.47;100.00;64613.53;4897133;29;28454;-72
2023/12/07 04:39:37;;;;;;;;;25.33;23.67;;;;;-147.47;100.00;64613.53;4892017;29;28836;-70
2023/12/07 04:42:03;;;;;;;;;27.67;24.33;;;;;-147.47;100.00;64613.53;4885732;29;28567;-72
2023/12/07 04:44:28;;;;;;;;;23.67;22.33;;;;;-147.47;100.00;64613.53;4888614;29;30408;-70
2023/12/07 04:46:54;;;;;;;;;25.33;21.67;;;;;-147.47;100.00;64613.53;4892217;29;29018;-73
2023/12/07 04:49:19;;;;;;;;;21.33;18.67;;;;;-147.47;100.00;64613.53;4892567;29;28594;-71
2023/12/07 04:51:46;;;;;;;;;27.67;24.33;;;;;-147.47;100.00;64613.53;4891912;29;28684;-69
2023/12/07 04:54:14;;;;;;;;;25.00;16.67;;;;;-147.47;100.00;64613.53;4882125;29;28514;-70
2023/12/07 04:56:43;;;;;;;;;23.33;22.67;;;;;-147.47;100.00;64613.53;4891730;29;28521;-69
2023/12/07 04:59:09;;;;;;;;;31.33;20.33;;;;;-147.47;100.00;64613.53;4888242;29;28575;-72
2023/12/07 05:01:38;;;;;;;;;27.67;23.00;;;;;-147.47;100.00;64613.53;4887035;29;28633;-70
2023/12/07 05:04:04;;;;;;;;;24.67;23.67;;;;;-147.47;100.00;64613.53;4885872;29;29793;-69
2023/12/07 05:06:30;;;;;;;;;25.33;23.33;;;;;-147.47;100.00;64613.53;4883946;29;28931;-70
2023/12/07 05:08:56;;;;;;;;;22.67;22.67;;;;;-147.47;100.00;64613.53;4893095;29;28415;-79
2023/12/07 05:11:21;;;;;;;;;30.67;24.67;;;;;-147.47;100.00;64613.53;4899187;29;28480;-77
2023/12/07 05:13:47;;;;;;;;;22.00;21.00;;;;;-147.47;100.00;64613.53;4897420;29;29744;-77
2023/12/07 05:16:13;;;;;;;;;31.67;26.67;;;;;-147.47;100.00;64613.53;4891663;29;28790;-80
2023/12/07 05:18:39;;;;;;;;;24.67;17.67;;;;;-147.47;100.00;64613.53;4899739;29;28942;-78
2023/12/07 05:21:05;;;;;;;;;16.00;15.00;;;;;-147.47;100.00;64613.53;4893773;29;29549;-77
2023/12/07 05:23:30;;;;;;;;;30.25;26.75;;;;;-147.47;100.00;64613.53;4900740;29;28271;-79
2023/12/07 05:25:56;;;;;;;;;70.75;51.25;;;;;-147.47;100.00;64613.53;4898443;29;28526;-78
2023/12/07 05:28:22;;;;;;;;;24.00;22.00;;;;;-147.47;100.00;64613.53;4896578;29;28476;-77
2023/12/07 05:30:48;;;;;;;;;33.00;25.50;;;;;-147.47;100.00;64613.53;4891963;29;29452;-79
2023/12/07 05:33:13;;;;;;;;;32.67;30.00;;;;;-147.47;100.00;64613.53;4895010;29;28656;-79
2023/12/07 05:35:39;;;;;;;;;26.00;24.50;;;;;-147.47;100.00;64613.53;4904882;29;29071;-78
2023/12/07 05:38:04;;;;;;;;;25.67;21.67;;;;;-147.47;100.00;64613.53;4896892;29;28802;-76
2023/12/07 05:40:30;;;;;;;;;24.67;19.67;;;;;-147.47;100.00;64613.53;4900235;29;29373;-72
2023/12/07 05:42:55;;;;;;;;;26.33;23.67;;;;;-147.47;100.00;64613.53;4886421;29;29285;-71
2023/12/07 05:45:21;;;;;;;;;30.67;25.67;;;;;-147.47;100.00;64613.53;4872195;29;28745;-72
2023/12/07 05:47:46;;;;;;;;;26.50;23.75;;;;;-147.47;100.00;64613.53;4881303;29;28607;-71
2023/12/07 05:50:11;;;;;;;;;25.33;24.00;;;;;-147.47;100.00;64613.53;4890465;29;29844;-70
2023/12/07 05:52:37;;;;;;;;;30.00;23.00;;;;;-147.47;100.00;64613.53;4887322;29;29215;-72
2023/12/07 05:55:03;;;;;;;;;35.33;25.00;;;;;-147.47;100.00;64613.53;4890683;29;28590;-72
2023/12/07 05:57:28;;;;;;;;;28.67;24.67;;;;;-147.47;100.00;64613.53;4883206;29;29000;-69
2023/12/07 05:59:53;;;;;;;;;20.33;19.33;;;;;-147.47;100.00;64613.53;4883367;29;29182;-70
2023/12/07 06:02:22;;;;;;;;;24.33;21.33;;;;;-147.47;100.00;64613.53;4882310;29;30176;-74
2023/12/07 06:04:47;;;;;;;;;23.00;21.67;;;;;-147.47;100.00;64613.53;4881564;29;28871;-71
2023/12/07 06:07:15;;;;;;;;;26.00;23.33;;;;;-147.47;100.00;64613.53;4889617;29;28435;-80
2023/12/07 06:09:41;;;;;;;;;23.00;19.00;;;;;-147.47;100.00;64613.53;4880740;29;28908;-78
2023/12/07 06:12:06;;;;;;;;;27.00;23.33;;;;;-147.47;100.00;64613.53;4888692;29;30462;-78
2023/12/07 06:14:32;;;;;;;;;18.67;14.67;;;;;-147.47;100.00;64613.53;4894180;29;28898;-79
2023/12/07 06:16:59;;;;;;;;;23.00;18.00;;;;;-147.47;100.00;64613.53;4891717;29;29118;-80
2023/12/07 06:19:25;;;;;;;;;23.67;22.33;;;;;-147.47;100.00;64613.53;4887373;29;29192;-79
2023/12/07 06:21:50;;;;;;;;;29.00;24.33;;;;;-147.47;100.00;64613.53;4887841;29;28549;-80
2023/12/07 06:24:16;;;;;;;;;22.33;20.00;;;;;-147.47;100.00;64613.53;4888598;29;28428;-79
2023/12/07 06:26:41;;;;;;;;;18.33;17.00;;;;;-147.47;100.00;64613.53;4905008;29;28774;-80
2023/12/07 06:29:07;;;;;;;;;21.33;19.33;;;;;-147.47;100.00;64613.53;4883694;29;29781;-78
2023/12/07 06:31:33;;;;;;;;;29.33;25.67;;;;;-147.47;100.00;64613.53;4892481;29;29856;-80
2023/12/07 06:34:00;;;;;;;;;24.33;17.67;;;;;-147.47;100.00;64613.53;4895028;29;28508;-80
2023/12/07 06:36:26;;;;;;;;;17.33;16.33;;;;;-147.47;100.00;64613.53;4891302;29;28573;-79
2023/12/07 06:38:53;;;;;;;;;26.00;21.33;;;;;-147.47;100.00;64613.53;4895321;29;29644;-80
2023/12/07 06:41:18;;;;;;;;;22.00;17.67;;;;;-147.47;100.00;64613.53;4892231;29;30083;-78
2023/12/07 06:43:44;;;;;;;;;27.00;22.67;;;;;-147.47;100.00;64613.53;4895683;29;28901;-85
2023/12/07 06:46:13;;;;;;;;;22.00;19.00;;;;;-147.47;100.00;64613.53;4899215;29;28522;-81
2023/12/07 06:48:39;;;;;;;;;21.00;21.00;;;;;-147.47;100.00;64613.53;4897338;29;28591;-79
2023/12/07 06:51:05;;;;;;;;;19.67;17.67;;;;;-147.47;100.00;64613.53;4896338;29;29378;-81
2023/12/07 06:53:31;;;;;;;;;22.67;20.00;;;;;-147.47;100.00;64613.53;4895880;29;28566;-78
2023/12/07 06:55:57;;;;;;;;;24.33;21.33;;;;;-147.47;100.00;64613.53;4895546;29;28587;-81
2023/12/07 06:58:22;;;;;;;;;19.00;16.67;;;;;-147.47;100.00;64613.53;4895987;29;30734;-80
2023/12/07 07:00:49;;;;;;;;;20.00;17.67;;;;;-147.47;100.00;64613.53;4895230;29;29972;-79
2023/12/07 07:03:14;;;;;;;;;21.33;19.67;;;;;-147.47;100.00;64613.53;4896056;29;27907;-83
2023/12/07 07:05:40;;;;;;;;;22.33;20.00;;;;;-147.47;100.00;64613.53;4889066;29;27865;-80
2023/12/07 07:08:07;;;;;;;;;17.67;16.33;;;;;-147.47;100.00;64613.53;4898234;29;28494;-81
2023/12/07 07:10:33;;;;;;;;;17.67;16.33;;;;;-147.47;100.00;64613.53;4895027;29;29799;-81
2023/12/07 07:13:05;;;;;;;;;26.67;25.33;;;;;-147.47;100.00;64613.53;4897676;29;28566;-79
2023/12/07 07:15:32;;;;;;;;;20.00;16.00;;;;;-147.47;100.00;64613.53;4880278;29;28554;-80
2023/12/07 07:17:57;;;;;;;;;18.33;16.67;;;;;-147.47;100.00;64613.53;4884511;29;28512;-78
2023/12/07 07:20:22;;;;;;;;;21.67;18.67;;;;;-147.47;100.00;64613.53;4896049;29;29422;-80
2023/12/07 07:22:48;;;;;;;;;17.67;17.67;;;;;-147.47;100.00;64613.53;4897811;29;28767;-81
2023/12/07 07:25:15;;;;;;;;;28.33;21.00;;;;;-147.47;100.00;64613.53;4898342;29;28466;-80
2023/12/07 07:27:41;;;;;;;;;21.67;18.67;;;;;-147.47;100.00;64613.53;4898210;29;29173;-80
2023/12/07 07:30:08;;;;;;;;;17.67;15.00;;;;;-147.47;100.00;64613.53;4894415;29;28678;-80
2023/12/07 07:32:34;;;;;;;;;19.67;15.00;;;;;-147.47;100.00;64613.53;4907198;29;28884;-80
2023/12/07 07:35:00;;;;;;;;;17.33;15.33;;;;;-147.47;100.00;64613.53;4898240;29;28549;-79
2023/12/07 07:37:25;;;;;;;;;22.00;20.33;;;;;-147.47;100.00;64613.53;4892077;29;29323;-82
2023/12/07 07:39:51;;;;;;;;;19.00;18.00;;;;;-147.47;100.00;64613.53;4897305;29;29273;-79
2023/12/07 07:42:16;;;;;;;;;24.67;23.00;;;;;-147.47;100.00;64613.53;4901129;29;28619;-78
2023/12/07 07:44:42;;;;;;;;;19.00;14.67;;;;;-147.47;100.00;64613.53;4885589;28;28622;-79
2023/12/07 07:47:10;;;;;;;;;20.33;17.67;;;;;-147.47;100.00;64613.53;4893610;29;30889;-79
2023/12/07 07:49:37;;;;;;;;;24.67;19.33;;;;;-147.47;100.00;64613.53;4898805;28;28708;-79
2023/12/07 07:52:02;;;;;;;;;20.00;18.67;;;;;-147.47;100.00;64613.53;4891825;29;28691;-80
2023/12/07 07:54:28;;;;;;;;;21.00;17.67;;;;;-147.47;100.00;64613.53;4894860;29;28494;-82
2023/12/07 07:56:53;;;;;;;;;21.33;17.33;;;;;-147.47;100.00;64613.53;4894610;28;28958;-80
2023/12/07 07:59:19;;;;;;;;;26.33;16.67;;;;;-147.47;100.00;64613.53;4895574;29;28990;-80
2023/12/07 08:01:46;;;;;;;;;19.00;15.67;;;;;-147.47;100.00;64613.53;4894930;29;28615;-79
2023/12/07 08:04:12;;;;;;;;;22.00;17.33;;;;;-147.47;100.00;64613.53;4892824;29;28495;-80
2023/12/07 08:06:37;;;;;;;;;23.00;18.67;;;;;-147.47;100.00;64613.53;4895193;29;28617;-82
2023/12/07 08:09:03;;;;;;;;;19.33;18.33;;;;;-147.47;100.00;64613.53;4894264;29;30315;-78
2023/12/07 08:11:29;;;;;;;;;19.67;19.67;;;;;-147.47;100.00;64613.53;4889649;29;28802;-80
2023/12/07 08:13:57;;;;;;;;;23.33;18.33;;;;;-147.47;100.00;64613.53;4891928;29;28166;-81
2023/12/07 08:16:22;;;;;;;;;24.33;20.00;;;;;-147.47;100.00;64613.53;4893524;29;28628;-80
2023/12/07 08:18:48;;;;;;;;;19.00;16.33;;;;;-147.47;100.00;64613.53;4893444;29;28511;-77
2023/12/07 08:21:23;;;;;;;;;21.33;20.33;;;;;-147.47;100.00;64613.53;4891514;29;28503;-77
2023/12/07 08:23:48;;;;;;;;;17.67;16.33;;;;;-147.47;100.00;64613.53;4892817;29;28561;-76
2023/12/07 08:26:14;;;;;;;;;20.00;20.00;;;;;-147.47;100.00;64613.53;4891291;29;29165;-78
2023/12/07 08:28:41;;;;;;;;;19.67;16.67;;;;;-147.47;100.00;64613.53;4892953;29;28923;-77
2023/12/07 08:31:06;;;;;;;;;17.67;17.00;;;;;-147.47;100.00;64613.53;4892784;29;28849;-78
2023/12/07 08:33:34;;;;;;;;;23.33;19.00;;;;;-147.47;100.00;64613.53;4893353;29;28562;-78
2023/12/07 08:35:59;;;;;;;;;17.67;16.00;;;;;-147.47;100.00;64613.53;4893894;29;28613;-75
2023/12/07 08:38:25;;;;;;;;;23.33;20.67;;;;;-147.47;100.00;64613.53;4890744;29;31300;-79
2023/12/07 08:40:51;;;;;;;;;19.00;17.00;;;;;-147.47;100.00;64613.53;4891255;29;28474;-76
2023/12/07 08:43:18;;;;;;;;;16.00;14.00;;;;;-147.47;100.00;64613.53;4891342;29;28859;-76
2023/12/07 08:45:44;;;;;;;;;16.67;15.67;;;;;-147.47;100.00;64613.53;4891670;29;28894;-79
2023/12/07 08:48:09;;;;;;;;;16.00;16.00;;;;;-147.47;100.00;64613.53;4897138;29;28813;-76
2023/12/07 08:50:35;;;;;;;;;18.67;16.67;;;;;-147.47;100.00;64613.53;4892550;29;28613;-76
2023/12/07 08:53:00;;;;;;;;;19.00;18.00;;;;;-147.47;100.00;64613.53;4906189;29;28575;-75
2023/12/07 08:55:26;;;;;;;;;18.67;17.00;;;;;-147.47;100.00;64613.53;4885623;29;28652;-77
2023/12/07 08:57:53;;;;;;;;;21.00;18.00;;;;;-147.47;100.00;64613.53;4891858;29;28633;-76
2023/12/07 09:00:23;;;;;;;;;21.33;19.33;;;;;-147.47;100.00;64613.53;4891706;29;28478;-76
2023/12/07 09:02:49;;;;;;;;;20.67;18.00;;;;;-147.47;100.00;64613.53;4890770;29;28590;-75
2023/12/07 09:05:15;;;;;;;;;20.33;17.67;;;;;-147.47;100.00;64613.53;4892966;29;28454;-76
2023/12/07 09:07:40;;;;;;;;;20.33;18.33;;;;;-147.47;100.00;64613.53;4890789;29;31131;-76
2023/12/07 09:10:06;;;;;;;;;18.67;17.00;;;;;-147.47;100.00;64613.53;4893669;29;28434;-77
2023/12/07 09:12:32;;;;;;;;;16.67;14.00;;;;;-147.47;100.00;64613.53;4891204;29;28740;-76
2023/12/07 09:14:57;;;;;;;;;25.00;20.33;;;;;-147.47;100.00;64613.53;4892818;29;28580;-75
2023/12/07 09:17:22;;;;;;;;;22.00;18.67;;;;;-147.47;100.00;64613.53;4892250;29;28450;-76
2023/12/07 09:19:48;;;;;;;;;21.00;17.33;;;;;-147.47;100.00;64613.53;4891639;29;28726;-76
2023/12/07 09:22:16;;;;;;;;;20.67;17.33;;;;;-147.47;100.00;64613.53;4891246;29;29320;-76
2023/12/07 09:24:41;;;;;;;;;20.33;18.00;;;;;-147.47;100.00;64613.53;4892329;29;28623;-77
2023/12/07 09:27:07;;;;;;;;;18.00;17.67;;;;;-147.47;100.00;64613.53;4892215;29;29121;-75
2023/12/07 09:29:32;;;;;;;;;20.67;17.33;;;;;-147.47;100.00;64613.53;4888368;29;28978;-76
2023/12/07 09:31:57;;;;;;;;;17.00;13.33;;;;;-147.47;100.00;64613.53;4891629;29;28505;-76
2023/12/07 09:34:23;;;;;;;;;15.33;15.33;;;;;-147.47;100.00;64613.53;4888373;29;29685;-77
2023/12/07 09:36:48;;;;;;;;;12.67;12.67;;;;;-147.47;100.00;64613.53;4891493;29;29820;-76
2023/12/07 09:39:14;;;;;;;;;20.67;17.00;;;;;-147.47;100.00;64613.53;4892354;29;29158;-79
2023/12/07 09:41:42;;;;;;;;;20.67;18.00;;;;;-147.47;100.00;64613.53;4907712;29;28475;-80
2023/12/07 09:44:07;;;;;;;;;20.00;18.67;;;;;-147.47;100.00;64613.53;4892917;29;29264;-79
2023/12/07 09:46:33;;;;;;;;;19.67;15.33;;;;;-147.47;100.00;64613.53;4894549;29;29640;-79
2023/12/07 09:48:59;;;;;;;;;17.00;13.00;;;;;-147.47;100.00;64613.53;4894055;29;28078;-78
2023/12/07 09:51:26;;;;;;;;;16.33;14.33;;;;;-147.47;100.00;64613.53;4894740;29;28418;-79
2023/12/07 09:53:52;;;;;;;;;19.00;13.67;;;;;-147.47;100.00;64613.53;4895230;29;28632;-80
2023/12/07 09:56:18;;;;;;;;;17.00;14.00;;;;;-147.47;100.00;64613.53;4890925;29;29315;-76
2023/12/07 09:58:43;;;;;;;;;14.33;10.67;;;;;-147.47;100.00;64613.53;4892718;29;28697;-76
2023/12/07 10:01:09;;;;;;;;;18.00;14.33;;;;;-147.47;100.00;64613.53;4892735;29;28807;-76
2023/12/07 10:03:34;;;;;;;;;18.00;15.67;;;;;-147.47;100.00;64613.53;4892874;29;28585;-77
2023/12/07 10:06:00;;;;;;;;;20.00;17.33;;;;;-147.47;100.00;64613.53;4891898;29;28499;-75
2023/12/07 10:08:29;;;;;;;;;14.00;12.67;;;;;-147.47;100.00;64613.53;4887936;29;28435;-78
2023/12/07 10:11:09;;;;;;;;;19.67;15.33;;;;;-147.47;100.00;64613.53;4889305;29;28716;-76
2023/12/07 10:13:36;;;;;;;;;14.67;14.67;;;;;-147.47;100.00;64613.53;4891593;29;28997;-76
2023/12/07 10:16:14;;;;;;;;;17.67;15.67;;;;;-147.47;100.00;64613.53;4893939;29;29402;-76
2023/12/07 10:18:40;;;;;;;;;17.67;13.00;;;;;-147.47;100.00;64613.53;4899885;29;28820;-76
2023/12/07 10:21:07;;;;;;;;;18.00;14.00;;;;;-147.47;100.00;64613.53;4891901;29;29605;-76
2023/12/07 10:23:33;;;;;;;;;19.67;16.67;;;;;-147.47;100.00;64613.53;4889743;29;29794;-76
2023/12/07 10:26:02;;;;;;;;;13.67;13.67;;;;;-147.47;100.00;64613.53;4892275;29;28546;-77
2023/12/07 10:28:27;;;;;;;;;13.33;13.33;;;;;-147.47;100.00;64613.53;4892237;29;28621;-76
2023/12/07 10:30:52;;;;;;;;;16.00;13.67;;;;;-147.47;100.00;64613.53;4890925;29;29039;-77
2023/12/07 10:33:19;;;;;;;;;11.67;10.67;;;;;-147.47;100.00;64613.53;4891894;29;28544;-76
2023/12/07 10:35:48;;;;;;;;;17.33;13.00;;;;;-147.47;100.00;64613.53;4892143;29;28471;-76
2023/12/07 10:38:14;;;;;;;;;14.33;13.00;;;;;-147.47;100.00;64613.53;4889277;29;28968;-77
2023/12/07 10:40:39;;;;;;;;;17.67;14.67;;;;;-147.47;100.00;64613.53;4889659;29;28543;-79
2023/12/07 10:43:06;;;;;;;;;14.33;12.33;;;;;-147.47;100.00;64613.53;4884414;29;28905;-76
2023/12/07 10:45:34;;;;;;;;;9.00;9.00;;;;;-147.47;100.00;64613.53;4882905;29;28936;-75
2023/12/07 10:48:05;;;;;;;;;10.33;8.00;;;;;-147.47;100.00;64613.53;4872501;29;28474;-76
2023/12/07 10:50:34;;;;;;;;;13.00;13.00;;;;;-147.47;100.00;64613.53;4872019;29;28846;-76